PST,Max TemperatureF,Mean TemperatureF,Min TemperatureF,Max Dew PointF,MeanDew PointF,Min DewpointF,Max Humidity, Mean Humidity, Min Humidity, Max Sea Level PressureIn, Mean Sea Level PressureIn, Min Sea Level PressureIn, Max VisibilityMiles, Mean VisibilityMiles, Min VisibilityMiles, Max Wind SpeedMPH, Mean Wind SpeedMPH, Max Gust SpeedMPH,PrecipitationIn, CloudCover, Events, WindDirDegrees
2013-2-1,64,51,37,44,41,36,100,74,48,30.19,30.16,30.10,10,8,4,12,3,17,0.00,0,Snow,71
2013-2-2,63,52,41,45,43,40,96,72,48,30.26,30.21,30.17,10,9,7,9,3,21,0.00,0,,352
2013-2-3,60,50,40,45,42,39,100,78,55,30.22,30.16,30.10,10,10,5,15,5,16,0.00,0,,205
2013-2-4,56,47,38,48,43,37,100,89,77,30.19,30.11,30.03,10,5,0,14,4,15,0.00,4,Fog,289
2013-2-5,58,52,46,45,42,39,93,77,61,30.12,30.07,30.03,10,10,10,17,8,30,0.00,4,,239
2013-2-6,60,49,37,42,38,35,92,69,46,30.17,30.13,30.08,10,10,10,13,6,23,0.00,1,,209
2013-2-7,55,48,40,44,39,32,89,67,45,30.16,30.06,29.96,10,9,2,16,8,20,0.08,3,Rain,219
2013-2-8,55,46,36,39,37,31,92,70,47,29.99,29.95,29.91,10,10,9,15,3,18,0.00,4,,248
2013-2-9,59,45,30,32,27,23,85,55,25,30.06,30.01,29.97,10,10,10,9,2,17,0.00,0,,146
2013-2-10,61,46,31,37,33,28,85,61,37,30.10,30.04,29.98,10,10,10,9,2,23,0.00,0,,125
2013-2-11,63,48,33,34,30,26,92,59,25,30.20,30.13,30.05,10,10,10,10,3,16,0.00,0,,112
2013-2-12,61,48,34,39,34,30,89,63,36,30.35,30.28,30.20,10,10,8,9,3,23,0.00,0,,36
2013-2-13,64,50,35,43,37,33,85,60,34,30.31,30.24,30.17,10,10,10,10,2,20,0.00,0,,206
2013-2-14,68,52,36,44,40,34,92,66,39,30.22,30.18,30.12,10,10,10,13,4,16,0.00,0,,113
2013-2-15,69,54,38,43,41,37,100,70,39,30.25,30.21,30.18,10,10,5,10,3,22,0.00,0,,33
2013-2-16,67,53,38,47,41,36,92,66,40,30.21,30.11,30.01,10,10,9,9,2,17,0.00,0,,111
2013-2-17,65,52,39,45,40,34,96,65,34,30.02,29.98,29.92,10,10,8,8,3,13,0.00,0,,174
2013-2-18,54,48,42,42,39,35,92,73,54,30.01,29.96,29.93,10,10,9,23,12,28,0.00,5,,219
2013-2-19,49,44,39,43,37,32,89,73,56,29.93,29.82,29.71,10,9,2,24,9,29,0.24,6,Rain,234
2013-2-20,59,46,32,38,33,30,89,63,36,30.02,29.93,29.83,10,10,10,14,6,21,0.00,0,,246
2013-2-21,61,48,34,36,33,28,89,59,29,30.13,30.08,30.02,10,10,10,16,5,20,0.00,0,,239
2013-2-22,63,50,36,42,37,32,92,63,34,30.22,30.17,30.14,10,10,10,16,6,20,0.00,0,,213
2013-2-23,60,50,40,44,37,30,86,60,33,30.22,30.17,30.12,10,10,10,17,8,22,T,1,,260
2013-2-24,64,50,35,30,24,18,70,44,17,30.23,30.18,30.13,10,10,10,13,4,22,0.00,0,,83
2013-2-25,63,50,36,42,36,30,85,64,43,30.24,30.19,30.13,10,10,10,14,4,20,0.00,0,,308
2013-2-26,69,52,34,37,31,19,100,58,16,30.19,30.15,30.09,10,10,7,10,3,13,0.00,0,,146
2013-2-27,68,52,36,42,35,31,76,51,26,30.32,30.25,30.18,10,10,10,9,4,14,0.00,0,,203
2013-2-28,69,58,46,50,46,41,89,69,49,30.41,30.37,30.33,10,10,10,14,5,18,0.00,0,,257